createdAt,value
2023-04-02T00:00:09.717Z,9.57
2023-04-02T00:02:46.509Z,9.55
2023-04-02T00:05:21.230Z,9.53
2023-04-02T00:07:50.723Z,9.51
2023-04-02T00:10:28.802Z,9.46
2023-04-02T00:13:05.275Z,9.43
2023-04-02T00:15:34.293Z,9.40
2023-04-02T00:18:02.690Z,9.34
2023-04-02T00:20:33.974Z,9.29
2023-04-02T00:23:03.708Z,9.26
2023-04-02T00:25:36.864Z,9.23
2023-04-02T00:28:05.561Z,9.22
2023-04-02T00:30:34.021Z,9.23
2023-04-02T00:33:03.029Z,9.26
2023-04-02T00:35:31.410Z,9.28
2023-04-02T00:37:59.941Z,9.28
2023-04-02T00:40:28.743Z,9.29
2023-04-02T00:42:58.324Z,9.28
2023-04-02T00:45:26.503Z,9.30
2023-04-02T00:47:55.065Z,9.30
2023-04-02T00:50:33.412Z,9.32
2023-04-02T00:53:05.696Z,9.34
2023-04-02T00:55:39.236Z,9.36
2023-04-02T00:58:33.873Z,9.38
2023-04-02T01:01:15.028Z,9.41
2023-04-02T01:03:44.571Z,9.41
2023-04-02T01:06:14.523Z,9.41
2023-04-02T01:08:58.129Z,9.43
2023-04-02T01:11:50.709Z,9.44
2023-04-02T01:14:39.192Z,9.44
2023-04-02T01:17:08.820Z,9.41
2023-04-02T01:19:46.696Z,9.40
2023-04-02T01:22:18.397Z,9.38
2023-04-02T01:24:46.966Z,9.36
2023-04-02T01:27:23.919Z,9.33
2023-04-02T01:29:56.933Z,9.29
2023-04-02T01:32:26.396Z,9.26
2023-04-02T01:34:54.677Z,9.23
2023-04-02T01:37:23.483Z,9.23
2023-04-02T01:40:11.403Z,9.21
2023-04-02T01:42:49.300Z,9.21
2023-04-02T01:45:19.681Z,9.25
2023-04-02T01:47:48.807Z,9.30
2023-04-02T01:50:20.135Z,9.36
2023-04-02T01:52:58.548Z,9.38
2023-04-02T01:55:34.508Z,9.40
2023-04-02T01:58:04.936Z,9.44
2023-04-02T02:00:35.047Z,9.48
2023-04-02T02:03:03.956Z,9.47
2023-04-02T02:05:33.275Z,9.47
2023-04-02T02:08:01.792Z,9.50
2023-04-02T02:10:34.529Z,9.53
2023-04-02T02:13:03.118Z,9.53
2023-04-02T02:15:32.043Z,9.54
2023-04-02T02:18:02.649Z,9.56
2023-04-02T02:20:30.821Z,9.52
2023-04-02T02:23:00.452Z,9.45
2023-04-02T02:25:28.924Z,9.38
2023-04-02T02:27:57.347Z,9.34
2023-04-02T02:30:30.813Z,9.31
2023-04-02T02:32:59.646Z,9.24
2023-04-02T02:35:31.527Z,9.10
2023-04-02T02:38:04.562Z,8.90
2023-04-02T02:40:41.329Z,8.72
2023-04-02T02:43:10.713Z,8.60
2023-04-02T02:45:39.244Z,8.52
2023-04-02T02:48:10.164Z,8.50
2023-04-02T02:50:38.762Z,8.51
2023-04-02T02:53:14.266Z,8.55
2023-04-02T02:55:42.503Z,8.54
2023-04-02T02:58:19.639Z,8.54
2023-04-02T03:00:56.709Z,8.51
2023-04-02T03:03:27.786Z,8.49
2023-04-02T03:06:17.553Z,8.46
2023-04-02T03:08:51.372Z,8.43
2023-04-02T03:11:23.392Z,8.52
2023-04-02T03:13:52.315Z,8.60
2023-04-02T03:16:25.479Z,8.69
2023-04-02T03:19:08.128Z,8.69
2023-04-02T03:21:39.535Z,8.67
2023-04-02T03:24:14.298Z,8.68
2023-04-02T03:26:44.582Z,8.69
2023-04-02T03:29:19.793Z,8.67
2023-04-02T03:32:00.466Z,8.65
2023-04-02T03:34:33.577Z,8.65
2023-04-02T03:37:10.946Z,8.67
2023-04-02T03:39:43.981Z,8.65
2023-04-02T03:42:18.319Z,8.64
2023-04-02T03:44:51.594Z,8.66
2023-04-02T03:47:23.997Z,8.69
2023-04-02T03:50:12.573Z,8.75
2023-04-02T03:52:42.070Z,8.81
2023-04-02T03:55:16.093Z,8.85
2023-04-02T03:57:53.935Z,8.88
2023-04-02T04:00:29.859Z,8.93
2023-04-02T04:03:18.647Z,8.96
2023-04-02T04:06:02.916Z,9.01
2023-04-02T04:08:42.703Z,9.04
2023-04-02T04:11:13.695Z,9.08
2023-04-02T04:13:46.927Z,9.13
2023-04-02T04:16:20.293Z,9.12
2023-04-02T04:18:57.301Z,9.13
2023-04-02T04:21:52.769Z,9.14
2023-04-02T04:24:24.904Z,9.10
2023-04-02T04:26:57.095Z,9.08
2023-04-02T04:29:31.936Z,9.11
2023-04-02T04:32:11.266Z,9.13
2023-04-02T04:34:47.043Z,9.12
2023-04-02T04:37:40.968Z,9.13
2023-04-02T04:40:12.207Z,9.10
2023-04-02T04:42:42.219Z,9.10
2023-04-02T04:45:34.650Z,9.09
2023-04-02T04:48:16.756Z,9.07
2023-04-02T04:50:56.277Z,9.09
2023-04-02T04:53:27.337Z,9.12
2023-04-02T04:56:03.443Z,9.13
2023-04-02T04:58:53.249Z,9.08
2023-04-02T05:01:34.388Z,9.05
2023-04-02T05:04:22.161Z,9.06
2023-04-02T05:07:09.591Z,9.11
2023-04-02T05:09:45.497Z,9.15
2023-04-02T05:12:18.852Z,9.16
2023-04-02T05:14:47.914Z,9.15
2023-04-02T05:17:20.846Z,9.15
2023-04-02T05:19:56.846Z,9.14
2023-04-02T05:22:32.050Z,9.11
2023-04-02T05:25:09.783Z,9.06
2023-04-02T05:27:45.001Z,9.08
2023-04-02T05:30:28.740Z,9.10
2023-04-02T05:33:05.351Z,9.04
2023-04-02T05:35:38.027Z,9.01
2023-04-02T05:38:06.944Z,8.97
2023-04-02T05:40:43.648Z,8.96
2023-04-02T05:43:14.177Z,8.89
2023-04-02T05:45:45.060Z,8.86
2023-04-02T05:48:21.777Z,8.87
2023-04-02T05:50:54.611Z,8.84
2023-04-02T05:53:56.518Z,8.80
2023-04-02T05:56:27.536Z,8.78
2023-04-02T05:59:00.191Z,8.80
2023-04-02T06:01:35.511Z,8.77
2023-04-02T06:04:28.102Z,8.73
2023-04-02T06:07:04.653Z,8.75
2023-04-02T06:09:39.558Z,8.81
2023-04-02T06:12:12.689Z,8.89
2023-04-02T06:14:43.241Z,8.95
2023-04-02T06:17:16.769Z,8.97
2023-04-02T06:19:47.963Z,8.92
2023-04-02T06:22:19.683Z,8.91
2023-04-02T06:24:49.817Z,8.92
2023-04-02T06:27:20.248Z,8.92
2023-04-02T06:29:53.198Z,8.92
2023-04-02T06:32:23.310Z,8.96
2023-04-02T06:34:52.017Z,8.98
2023-04-02T06:37:25.714Z,8.97
2023-04-02T06:40:01.657Z,8.92
2023-04-02T06:42:40.033Z,8.94
2023-04-02T06:45:32.321Z,8.97
2023-04-02T06:48:18.278Z,8.98
2023-04-02T06:51:12.061Z,8.95
2023-04-02T06:53:43.338Z,8.92
2023-04-02T06:56:17.550Z,8.94
2023-04-02T06:58:46.368Z,8.86
2023-04-02T07:01:16.401Z,8.80
2023-04-02T07:03:45.291Z,8.85
2023-04-02T07:06:27.940Z,8.94
2023-04-02T07:09:01.139Z,8.96
2023-04-02T07:11:29.650Z,8.99
2023-04-02T07:14:01.142Z,9.06
2023-04-02T07:16:30.797Z,9.13
2023-04-02T07:18:59.490Z,9.11
2023-04-02T07:21:35.520Z,9.09
2023-04-02T07:24:03.771Z,9.12
2023-04-02T07:26:32.211Z,9.14
2023-04-02T07:29:00.359Z,9.10
2023-04-02T07:31:29.395Z,9.09
2023-04-02T07:33:59.709Z,9.13
2023-04-02T07:36:28.387Z,9.14
2023-04-02T07:38:56.910Z,9.20
2023-04-02T07:41:25.037Z,9.26
2023-04-02T07:43:56.479Z,9.32
2023-04-02T07:46:26.100Z,9.35
2023-04-02T07:48:54.512Z,9.40
2023-04-02T07:51:23.741Z,9.40
2023-04-02T07:53:56.303Z,9.37
2023-04-02T07:56:24.780Z,9.40
2023-04-02T07:58:52.895Z,9.45
2023-04-02T08:01:24.625Z,9.49
2023-04-02T08:03:54.777Z,9.50
2023-04-02T08:06:23.359Z,9.53
2023-04-02T08:08:51.649Z,9.58
2023-04-02T08:11:19.968Z,9.65
2023-04-02T08:13:54.432Z,9.85
2023-04-02T08:16:24.106Z,9.94
2023-04-02T08:18:52.474Z,9.98
2023-04-02T08:21:20.888Z,10.09
2023-04-02T08:23:49.078Z,10.11
2023-04-02T08:26:18.737Z,10.09
2023-04-02T08:28:47.536Z,10.13
2023-04-02T08:31:17.381Z,10.13
2023-04-02T08:33:45.763Z,10.12
2023-04-02T08:36:16.573Z,10.10
2023-04-02T08:38:45.096Z,10.10
2023-04-02T08:41:27.758Z,10.12
2023-04-02T08:44:15.263Z,10.17
2023-04-02T08:46:48.748Z,10.28
2023-04-02T08:49:18.117Z,10.36
2023-04-02T08:51:46.771Z,10.43
2023-04-02T08:54:14.931Z,10.49
2023-04-02T08:56:53.210Z,10.60
2023-04-02T08:59:32.357Z,10.68
2023-04-02T09:02:12.894Z,10.72
2023-04-02T09:04:42.023Z,10.80
2023-04-02T09:07:15.019Z,10.85
2023-04-02T09:09:43.746Z,10.89
2023-04-02T09:12:23.853Z,10.98
2023-04-02T09:14:55.864Z,11.13
2023-04-02T09:17:24.808Z,11.28
2023-04-02T09:20:01.862Z,11.45
2023-04-02T09:22:31.823Z,11.57
2023-04-02T09:25:04.989Z,11.69
2023-04-02T09:27:35.850Z,11.78
2023-04-02T09:30:24.635Z,11.98
2023-04-02T09:32:56.244Z,12.27
2023-04-02T09:35:27.045Z,12.59
2023-04-02T09:38:07.935Z,12.83
2023-04-02T09:41:05.993Z,13.06
2023-04-02T09:43:35.755Z,13.28
2023-04-02T09:46:08.287Z,13.42
2023-04-02T09:48:42.451Z,13.54
2023-04-02T09:51:22.764Z,13.60
2023-04-02T09:53:51.435Z,13.63
2023-04-02T09:56:23.695Z,13.60
2023-04-02T09:59:04.312Z,13.58
2023-04-02T10:01:39.664Z,13.57
2023-04-02T10:04:27.025Z,13.57
2023-04-02T10:06:58.175Z,13.51
2023-04-02T10:09:29.901Z,13.48
2023-04-02T10:11:58.834Z,13.42
2023-04-02T10:14:38.151Z,13.47
2023-04-02T10:17:17.984Z,13.52
2023-04-02T10:19:56.610Z,13.54
2023-04-02T10:22:27.613Z,13.59
2023-04-02T10:24:56.561Z,13.54
2023-04-02T10:27:26.334Z,13.48
2023-04-02T10:30:03.108Z,13.48
2023-04-02T10:32:36.372Z,13.54
2023-04-02T10:35:07.580Z,13.64
2023-04-02T10:37:49.605Z,13.76
2023-04-02T10:40:37.036Z,13.97
2023-04-02T10:43:20.366Z,14.28
2023-04-02T10:45:52.067Z,14.61
2023-04-02T10:48:23.403Z,14.95
2023-04-02T10:50:52.365Z,15.22
2023-04-02T10:53:21.709Z,15.41
2023-04-02T10:55:53.536Z,15.54
2023-04-02T10:58:23.767Z,15.58
2023-04-02T11:01:13.685Z,15.60
2023-04-02T11:03:50.249Z,15.65
2023-04-02T11:06:24.738Z,15.59
2023-04-02T11:08:54.524Z,15.43
2023-04-02T11:11:27.758Z,15.24
2023-04-02T11:14:03.983Z,14.94
2023-04-02T11:16:32.196Z,14.66
2023-04-02T11:19:16.049Z,14.40
2023-04-02T11:21:59.720Z,14.03
2023-04-02T11:24:30.318Z,13.73
2023-04-02T11:27:06.633Z,13.44
2023-04-02T11:29:35.553Z,13.18
2023-04-02T11:32:27.664Z,13.05
2023-04-02T11:35:06.426Z,12.92
2023-04-02T11:37:39.466Z,12.83
2023-04-02T11:40:11.411Z,12.71
2023-04-02T11:42:46.293Z,12.59
2023-04-02T11:45:24.428Z,12.50
2023-04-02T11:48:08.576Z,12.46
2023-04-02T11:50:38.276Z,12.40
2023-04-02T11:53:13.034Z,12.31
2023-04-02T11:55:42.485Z,12.22
2023-04-02T11:58:24.836Z,12.18
2023-04-02T12:00:55.355Z,12.13
2023-04-02T12:03:28.527Z,12.07
2023-04-02T12:06:06.476Z,12.05
2023-04-02T12:08:47.193Z,12.04
2023-04-02T12:11:33.109Z,12.03
2023-04-02T12:14:01.589Z,12.02
2023-04-02T12:16:33.503Z,12.00
2023-04-02T12:19:08.281Z,11.97
2023-04-02T12:21:36.721Z,11.96
2023-04-02T12:24:05.165Z,11.95
2023-04-02T12:26:37.714Z,11.96
2023-04-02T12:29:21.505Z,11.98
2023-04-02T12:31:49.878Z,12.05
2023-04-02T12:34:21.761Z,12.09
2023-04-02T12:36:56.334Z,12.09
2023-04-02T12:39:27.408Z,12.09
2023-04-02T12:41:57.690Z,12.09
2023-04-02T12:44:27.205Z,12.05
2023-04-02T12:46:55.424Z,12.01
2023-04-02T12:49:37.105Z,11.95
2023-04-02T12:52:09.537Z,11.92
2023-04-02T12:54:44.056Z,11.85
2023-04-02T12:57:23.219Z,11.77
2023-04-02T12:59:52.656Z,11.68
2023-04-02T13:02:25.147Z,11.56
2023-04-02T13:04:54.440Z,11.48
2023-04-02T13:07:23.559Z,11.40
2023-04-02T13:09:53.151Z,11.36
2023-04-02T13:12:35.129Z,11.38
2023-04-02T13:15:07.971Z,11.43
2023-04-02T13:17:48.071Z,11.44
2023-04-02T13:20:29.195Z,11.46
2023-04-02T13:22:57.854Z,11.48
2023-04-02T13:25:32.683Z,11.52
2023-04-02T13:28:01.822Z,11.57
2023-04-02T13:30:36.258Z,11.58
2023-04-02T13:33:10.583Z,11.53
2023-04-02T13:35:38.805Z,11.50
2023-04-02T13:38:07.302Z,11.51
2023-04-02T13:40:36.980Z,11.50
2023-04-02T13:43:07.477Z,11.46
2023-04-02T13:45:39.131Z,11.38
2023-04-02T13:48:09.529Z,11.27
2023-04-02T13:50:39.461Z,11.19
2023-04-02T13:53:10.464Z,11.17
2023-04-02T13:55:40.814Z,11.19
2023-04-02T13:58:09.417Z,11.14
2023-04-02T14:00:41.297Z,11.07
2023-04-02T14:03:23.960Z,11.01
2023-04-02T14:05:52.266Z,11.01
2023-04-02T14:08:20.506Z,10.97
2023-04-02T14:10:58.647Z,10.90
2023-04-02T14:13:36.185Z,10.86
2023-04-02T14:16:07.294Z,10.86
2023-04-02T14:18:54.869Z,10.85
2023-04-02T14:21:32.704Z,10.84
2023-04-02T14:24:15.097Z,10.83
2023-04-02T14:26:50.646Z,10.81
2023-04-02T14:29:22.775Z,10.79
2023-04-02T14:32:03.178Z,10.79
2023-04-02T14:34:35.768Z,10.80
2023-04-02T14:37:22.285Z,10.84
2023-04-02T14:40:06.689Z,10.86
2023-04-02T14:42:36.739Z,10.87
2023-04-02T14:45:11.094Z,10.91
2023-04-02T14:47:53.661Z,10.95
2023-04-02T14:50:28.160Z,10.97
2023-04-02T14:52:57.597Z,10.95
2023-04-02T14:55:36.264Z,10.91
2023-04-02T14:58:05.708Z,10.81
2023-04-02T15:00:36.466Z,10.70
2023-04-02T15:03:35.875Z,10.56
2023-04-02T15:06:08.729Z,10.44
2023-04-02T15:08:45.664Z,10.37
2023-04-02T15:11:19.428Z,10.33
2023-04-02T15:13:56.814Z,10.32
2023-04-02T15:16:27.797Z,10.32
2023-04-02T15:18:56.430Z,10.31
2023-04-02T15:21:29.720Z,10.25
2023-04-02T15:24:17.015Z,10.19
2023-04-02T15:26:48.479Z,10.11
2023-04-02T15:29:28.380Z,10.04
2023-04-02T15:32:03.374Z,9.96
2023-04-02T15:34:37.758Z,9.90
2023-04-02T15:37:35.598Z,9.82
2023-04-02T15:40:03.881Z,9.75
2023-04-02T15:42:39.368Z,9.70
2023-04-02T15:45:07.845Z,9.66
2023-04-02T15:47:40.110Z,9.62
2023-04-02T15:50:14.329Z,9.60
2023-04-02T15:52:45.500Z,9.56
2023-04-02T15:55:13.603Z,9.52
2023-04-02T15:58:00.051Z,9.48
2023-04-02T16:00:31.305Z,9.44
2023-04-02T16:03:32.817Z,9.44
2023-04-02T16:06:10.844Z,9.43
2023-04-02T16:08:39.992Z,9.42
2023-04-02T16:11:12.140Z,9.38
2023-04-02T16:13:44.037Z,9.34
2023-04-02T16:16:17.546Z,9.31
2023-04-02T16:18:55.479Z,9.29
2023-04-02T16:21:24.494Z,9.25
2023-04-02T16:23:52.908Z,9.23
2023-04-02T16:26:53.939Z,9.25
2023-04-02T16:29:53.506Z,9.32
2023-04-02T16:32:26.810Z,9.37
2023-04-02T16:34:57.646Z,9.40
2023-04-02T16:37:41.684Z,9.41
2023-04-02T16:40:19.076Z,9.43
2023-04-02T16:42:54.338Z,9.39
2023-04-02T16:45:34.979Z,9.39
2023-04-02T16:48:07.124Z,9.40
2023-04-02T16:50:41.241Z,9.43
2023-04-02T16:53:22.468Z,9.40
2023-04-02T16:56:05.966Z,9.39
2023-04-02T16:58:38.119Z,9.37
2023-04-02T17:01:08.690Z,9.39
2023-04-02T17:03:56.239Z,9.41
2023-04-02T17:06:33.395Z,9.40
2023-04-02T17:09:03.846Z,9.40
2023-04-02T17:11:52.445Z,9.38
2023-04-02T17:14:20.942Z,9.36
2023-04-02T17:16:50.726Z,9.35
2023-04-02T17:19:20.929Z,9.36
2023-04-02T17:21:50.228Z,9.36
2023-04-02T17:24:24.603Z,9.36
2023-04-02T17:27:00.930Z,9.32
2023-04-02T17:29:36.361Z,9.32
2023-04-02T17:32:05.492Z,9.32
2023-04-02T17:34:33.871Z,9.32
2023-04-02T17:37:11.231Z,9.35
2023-04-02T17:39:43.218Z,9.39
2023-04-02T17:42:30.175Z,9.38
2023-04-02T17:45:03.350Z,9.40
2023-04-02T17:47:31.734Z,9.40
2023-04-02T17:50:12.307Z,9.39
2023-04-02T17:52:44.613Z,9.40
2023-04-02T17:55:16.385Z,9.39
2023-04-02T17:58:05.384Z,9.39
2023-04-02T18:00:49.195Z,9.39
2023-04-02T18:03:18.592Z,9.39
2023-04-02T18:06:00.250Z,9.41
2023-04-02T18:08:36.264Z,9.39
2023-04-02T18:11:04.499Z,9.37
2023-04-02T18:13:42.132Z,9.35
2023-04-02T18:16:10.850Z,9.36
2023-04-02T18:18:57.688Z,9.34
2023-04-02T18:21:44.920Z,9.33
2023-04-02T18:24:19.750Z,9.34
2023-04-02T18:26:50.766Z,9.35
2023-04-02T18:29:49.044Z,9.39
2023-04-02T18:32:20.479Z,9.48
2023-04-02T18:35:08.176Z,9.51
2023-04-02T18:37:39.972Z,9.51
2023-04-02T18:40:08.195Z,9.52
2023-04-02T18:42:43.163Z,9.51
2023-04-02T18:45:17.208Z,9.51
2023-04-02T18:47:45.812Z,9.49
2023-04-02T18:50:16.059Z,9.49
2023-04-02T18:52:45.114Z,9.50
2023-04-02T18:55:15.020Z,9.51
2023-04-02T18:57:43.994Z,9.49
2023-04-02T19:00:16.181Z,9.53
2023-04-02T19:02:49.494Z,9.57
2023-04-02T19:05:20.771Z,9.52
2023-04-02T19:07:52.711Z,9.51
2023-04-02T19:10:30.216Z,9.52
2023-04-02T19:12:59.702Z,9.56
2023-04-02T19:15:30.508Z,9.57
2023-04-02T19:18:04.662Z,9.56
2023-04-02T19:20:41.702Z,9.54
2023-04-02T19:23:26.660Z,9.55
2023-04-02T19:25:57.996Z,9.50
2023-04-02T19:28:33.121Z,9.44
2023-04-02T19:31:09.305Z,9.40
2023-04-02T19:33:41.401Z,9.35
2023-04-02T19:36:28.536Z,9.35
2023-04-02T19:39:16.079Z,9.33
2023-04-02T19:41:48.789Z,9.32
2023-04-02T19:44:17.239Z,9.29
2023-04-02T19:46:45.631Z,9.29
2023-04-02T19:49:14.674Z,9.31
2023-04-02T19:51:43.741Z,9.34
2023-04-02T19:54:12.982Z,9.37
2023-04-02T19:56:42.682Z,9.38
2023-04-02T19:59:17.938Z,9.44
2023-04-02T20:01:47.293Z,9.53
2023-04-02T20:04:15.666Z,9.59
2023-04-02T20:06:43.949Z,9.62
2023-04-02T20:09:13.162Z,9.63
2023-04-02T20:11:41.302Z,9.65
2023-04-02T20:14:13.330Z,9.70
2023-04-02T20:16:45.715Z,9.71
2023-04-02T20:19:14.088Z,9.71
2023-04-02T20:21:45.773Z,9.71
2023-04-02T20:24:14.705Z,9.69
2023-04-02T20:26:43.029Z,9.67
2023-04-02T20:29:14.394Z,9.65
2023-04-02T20:31:43.088Z,9.64
2023-04-02T20:34:11.497Z,9.61
2023-04-02T20:36:40.192Z,9.59
2023-04-02T20:39:09.437Z,9.57
2023-04-02T20:41:38.075Z,9.56
2023-04-02T20:44:09.911Z,9.52
2023-04-02T20:46:39.836Z,9.48
2023-04-02T20:49:08.246Z,9.46
2023-04-02T20:51:38.342Z,9.43
2023-04-02T20:54:06.946Z,9.38
2023-04-02T20:56:37.709Z,9.34
2023-04-02T20:59:06.276Z,9.32
2023-04-02T21:01:34.611Z,9.30
2023-04-02T21:04:03.636Z,9.28
2023-04-02T21:06:32.866Z,9.28
2023-04-02T21:09:08.163Z,9.25
2023-04-02T21:11:36.878Z,9.22
2023-04-02T21:14:05.718Z,9.21
2023-04-02T21:16:34.516Z,9.18
2023-04-02T21:19:04.351Z,9.17
2023-04-02T21:21:32.579Z,9.15
2023-04-02T21:24:05.536Z,9.13
2023-04-02T21:26:36.052Z,9.11
2023-04-02T21:29:05.538Z,9.10
2023-04-02T21:31:34.782Z,9.04
2023-04-02T21:34:03.674Z,9.02
2023-04-02T21:36:34.005Z,9.00
2023-04-02T21:39:04.360Z,8.97
2023-04-02T21:41:33.315Z,8.98
2023-04-02T21:44:03.164Z,8.97
2023-04-02T21:46:33.677Z,8.92
2023-04-02T21:49:01.979Z,8.91
2023-04-02T21:51:31.105Z,8.88
2023-04-02T21:54:01.402Z,8.88
2023-04-02T21:56:33.279Z,8.87
2023-04-02T21:59:04.382Z,8.87
2023-04-02T22:01:33.578Z,8.85
2023-04-02T22:04:02.455Z,8.84
2023-04-02T22:06:31.754Z,8.82
2023-04-02T22:09:00.999Z,8.88
2023-04-02T22:11:35.899Z,8.86
2023-04-02T22:14:04.228Z,8.87
2023-04-02T22:16:33.239Z,8.86
2023-04-02T22:19:05.989Z,8.84
2023-04-02T22:21:35.030Z,8.80
2023-04-02T22:24:06.429Z,8.78
2023-04-02T22:26:36.565Z,8.77
2023-04-02T22:29:05.186Z,8.74
2023-04-02T22:31:35.928Z,8.74
2023-04-02T22:34:04.979Z,8.69
2023-04-02T22:36:33.393Z,8.67
2023-04-02T22:39:02.060Z,8.65
2023-04-02T22:41:32.162Z,8.63
2023-04-02T22:44:00.585Z,8.62
2023-04-02T22:46:29.258Z,8.61
2023-04-02T22:48:57.722Z,8.60
2023-04-02T22:51:27.824Z,8.61
2023-04-02T22:53:56.224Z,8.61
2023-04-02T22:56:26.285Z,8.58
2023-04-02T22:58:54.403Z,8.58
2023-04-02T23:01:24.014Z,8.57
2023-04-02T23:03:54.216Z,8.57
2023-04-02T23:06:22.675Z,8.57
2023-04-02T23:08:51.546Z,8.54
2023-04-02T23:11:23.826Z,8.55
2023-04-02T23:13:52.744Z,8.55
2023-04-02T23:16:21.503Z,8.56
2023-04-02T23:18:49.951Z,8.56
2023-04-02T23:21:18.507Z,8.55
2023-04-02T23:23:46.697Z,8.54
2023-04-02T23:26:16.281Z,8.55
2023-04-02T23:28:44.490Z,8.54
2023-04-02T23:31:14.145Z,8.54
2023-04-02T23:33:42.708Z,8.50
2023-04-02T23:36:12.786Z,8.45
2023-04-02T23:38:45.186Z,8.38
2023-04-02T23:41:16.498Z,8.35
2023-04-02T23:43:44.655Z,8.34
2023-04-02T23:46:12.925Z,8.31
2023-04-02T23:48:41.385Z,8.29
2023-04-02T23:51:10.279Z,8.26
2023-04-02T23:53:38.727Z,8.25
2023-04-02T23:56:07.009Z,8.24
2023-04-02T23:58:35.584Z,8.22
